This is the latest recevied weather packets stored in our database for station/object JA7ZQY-10. If no packets are shown the sender has not sent any weather packets the latest 10 day(s).
| Time | Temp. | Humidity | Pressure | Rain* | Wind** | Luminosity | Snow |
|---|---|---|---|---|---|---|---|
| 1778100891 | 16.11° C | 59% | 1014.4 hPa | 0 mm | - | - | - |
| 1778100290 | 15° C | 62% | 1014.4 hPa | 0 mm | - | - | - |
| 1778099691 | 13.89° C | 66% | 1014.5 hPa | 0 mm | - | - | - |
| 1778099090 | 12.22° C | 72% | 1014.5 hPa | 0 mm | - | - | - |
| 1778098490 | 11.67° C | 72% | 1014.7 hPa | 0 mm | - | - | - |
| 1778097890 | 11.67° C | 73% | 1014.8 hPa | 0 mm | - | - | - |
| 1778097289 | 11.11° C | 73% | 1014.9 hPa | 0 mm | - | - | - |
| 1778096691 | 11.11° C | 73% | 1014.8 hPa | 0 mm | - | - | - |
| 1778096090 | 11.11° C | 72% | 1015 hPa | 0 mm | - | - | - |
| 1778095490 | 11.11° C | 71% | 1014.6 hPa | 0 mm | - | - | - |
| 1778094891 | 11.67° C | 71% | 1014.8 hPa | 0 mm | - | - | - |
| 1778094290 | 11.67° C | 71% | 1014.8 hPa | 0 mm | - | - | - |
| 1778093691 | 11.67° C | 71% | 1015 hPa | 0 mm | - | - | - |
| 1778093090 | 11.67° C | 70% | 1015.4 hPa | 0 mm | - | - | - |
| 1778092490 | 11.67° C | 70% | 1015.4 hPa | 0 mm | - | - | - |
| 1778091891 | 12.22° C | 70% | 1015.3 hPa | 0 mm | - | - | - |
| 1778091291 | 12.22° C | 70% | 1015.2 hPa | 0 mm | - | - | - |
| 1778090691 | 12.22° C | 69% | 1015.6 hPa | 0 mm | - | - | - |
| 1778090090 | 12.22° C | 64% | 1015.8 hPa | 0 mm | - | - | - |
| 1778089489 | 12.22° C | 67% | 1015.9 hPa | 0 mm | - | - | - |
| 1778088890 | 12.78° C | 62% | 1015.8 hPa | 0 mm | - | - | - |
| 1778088290 | 12.78° C | 62% | 1015.7 hPa | 0 mm | - | - | - |
| 1778087690 | 12.78° C | 61% | 1016 hPa | 0 mm | - | - | - |
| 1778087091 | 13.33° C | 60% | 1016.1 hPa | 0 mm | - | - | - |
| 1778086491 | 13.89° C | 60% | 1016.2 hPa | 0 mm | - | - | - |
* Rain latest hour (hover to see other rain measurements)
** Current wind speed in m/s (hover to see current wind gust speed)